Aktualne dane pomiarowe

Uwaga, wersja testowa! Automatyczne pobieranie danych za pomocą narzędzi lub skryptów to umożliwiających jest zabronione.

Dane meteo z obszaru Polski uzyskane na podstawie depesz SYNOP pobieranych co godzinę z NWS. Najedź myszką na symbol przedstawiony w tabeli, aby uzyskać informacje co do jego znaczenia. Prosimy pamiętać, że to testowa wersja strony, która jeszcze nie jest ukończona. Stworzono również jest krótki FAQ dotyczący korzystania z tej podstrony Anomalie temperatury w chwili obecnej odniesione są do okresu referencyjnego 1951-2016. Okres ten będzie później zmieniony na 1981-2010. Kliknij ikonę aby pobrać plik CSV. Kliknij ikonę aby wygenerować mapę synoptyczną dla danego terminu.

Wybierz Datę:    

        

Siedlce (12385)

Dane terminowe dla wybranej stacji. Kliknij datę, aby otrzymać dane z tego terminu dla wszystkich stacji.

TemperaturaZachmurzenieWiatrCiśnienieOpadyPogoda
 Data t td wb tx tn tg rh  Nt Nl Cl Cm Ch ws wd g1 g2 wx mslp ppp ch 24h 12h t ww ww w1 w2  
2019-07-12 23:00:00 13.3 12.4 12.6--- 9410.0wxwxwxwx0---01010.0 991.4 -0.2---wx---
2019-07-12 22:00:00 13.4 12.3 12.6--- 9311.0wxwxwx1wx---1010.0 991.4 0.0---------
2019-07-12 21:00:00 12.6 11.3 11.7--- 9212.0wx-wx0---01010.1 991.5 0.3---------
2019-07-12 20:00:00 12.8 10.3 11.1--- 8517.0wx-wxwx1wx--11010.2 991.6 0.4---------
2019-07-12 19:00:00 15.0 11.2 12.5--- 7816.0wxwxwxwxwx0---01009.8 991.4 0.2---------
2019-07-12 18:00:00 18.0 10.8 13.6 23.7 14.2- 6318.0wxwxwxwxwx1wx--11009.5 991.2 0.4--12wx-w1--
2019-07-12 17:00:00 18.4 11.9 14.3--- 6635.0wxwxwxwxwx1wx--11009.4 991.2 0.0---wx---
2019-07-12 16:00:00 19.1 10.4 13.8--- 5735.0wxwxwxwx1wx--11009.4 991.2 -0.3---wx-w1--
2019-07-12 15:00:00 22.8 8.9 14.8--- 4135.0wxwxwxwxwx2wx--21008.7 990.8 -0.9---------
2019-07-12 14:00:00 23.4 8.7 14.9--- 3930.0wxwxwxwxwx4wx--41009.1 991.2 -0.8---------
2019-07-12 13:00:00 22.2 8.3 14.3--- 4135.0wxwxwxwxwx3wx--31009.5 991.5 -0.6---------
2019-07-12 12:00:00 22.8 8.1 14.4--- 3929.0wxwxwxwxwx4wx-941009.7 991.7 -0.5- 0.06------
2019-07-12 11:00:00 21.3 8.2 13.8--- 4335.0wxwxwxwxwx3wx--31010.1 992.0 -0.4---------
2019-07-12 10:00:00 21.4 7.6 13.6--- 4140.0wxwxwxwx4wx-941010.2 992.1 -0.5---------
2019-07-12 09:00:00 20.7 7.7 13.3--- 4330.0wxwxwxwx4wx---1010.3 992.2 -0.4---------
2019-07-12 08:00:00 19.4 8.4 13.1--- 4940.0wxwxwxwx3wx--31010.6 992.4 -0.2---------
2019-07-12 07:00:00 17.6 10.9 13.4--- 6535.0wxwxwxwxwx3wx--31010.9 992.6 0.1---------
2019-07-12 06:00:00 14.2 10.8 12.0 16.9 8.7 5 8030.0wxwxwxwxwx2wx--21011.1 992.6 0.2 0.5 0.012----- 3.0
2019-07-12 05:00:00 12.1 10.8 11.2--- 9223.0wxwxwxwxwx2wx---1011.3 992.6 0.4---------
2019-07-12 04:00:00 9.3 8.5 8.7--- 9519.0wx-wxwx1wx--11011.3 992.5 0.0---------
2019-07-12 03:00:00 9.0 8.4 8.5--- 9619.0wx-wxwx1wx--11011.3 992.4 -0.2---------
2019-07-12 02:00:00 9.0 8.2 8.4--- 9513.0wx-wxwx2wx--21011.1 992.2 -0.5---------
2019-07-12 01:00:00 9.7 8.6 8.9--- 9311.0wx-wxwx1wx--11011.3 992.5 -0.1---wx---
2019-07-12 00:00:00 11.1 9.4 9.9--- 8926.0wx-wxwx1wx--11011.3 992.6 0.2- 0.06------
2019-07-11 23:00:00 12.1 9.5 10.4--- 8430.0wx-wxwx1wx--11011.4 992.7 0.4---------
2019-07-11 22:00:00 13.0 9.8 10.9--- 8135.0wx-wxwx1wx--11011.2 992.6 0.3---------
2019-07-11 21:00:00 14.4 10.4 11.8--- 7745.0wx-wxwx2wx--21010.9 992.4 0.2---------
2019-07-11 20:00:00 15.2 12.1 13.1--- 8226.0wxwxwxwxwx1wx--11010.8 992.3 0.0---------
2019-07-11 19:00:00 15.5 12.3 13.4--- 8135.0wxwxwxwx1wx--11010.7 992.3 0.0---------
2019-07-11 18:00:00 16.9 12.0 13.7 19.0 11.2- 7345.0wxwxwxwx1wx--11010.5 992.2 0.0- 0.512wx-w1--
2019-07-11 17:00:00 17.5 10.8 13.3--- 6545.0wxwxwxwx1wx--11010.6 992.3 0.1---------
2019-07-11 16:00:00 17.5 10.8 13.3--- 6550.0wxwxwxwx2wx--21010.6 992.3 0.1---------
2019-07-11 15:00:00 18.2 11.3 13.9--- 6430.0wxwxwxwx2wx--21010.5 992.2 0.2---wx-w1--
2019-07-11 14:00:00 17.8 12.3 14.3--- 7030.0wxwxwxwx4wx--41010.5 992.2 -0.1---------
2019-07-11 13:00:00 16.2 12.7 13.9--- 8028.0wxwxwxwx2wx--21010.6 992.2 -0.5---wx---
2019-07-11 12:00:00 18.6 11.2 14.0--- 6226.0wxwxwxwx4wx--41010.2 992.0 -0.8- 0.16wx-w1--
2019-07-11 11:00:00 17.3 12.2 14.0--- 7230.0wxwxwxwx4wx--41010.6 992.3 -0.3---------
2019-07-11 10:00:00 15.2 12.0 13.1--- 8123.0wxwxwxwx3wx--31011.2 992.7 0.4---------
2019-07-11 09:00:00 14.3 12.2 12.8--- 8727.0wxwxwxwx3wx--31011.3 992.8 0.7---wx-w1--
2019-07-11 08:00:00 13.2 12.1 12.4--- 9315.0wxwxwx3wx--31011.2 992.6 0.7---------
2019-07-11 07:00:00 12.2 11.7 11.8--- 9710.0wxwxwx3wx---1010.9 992.3 0.7---wx-w1--
2019-07-11 06:00:00 11.2 10.7 10.8 14.6 9.0 5 974.0wxwxwx3wx--31010.8 992.1 0.4 1.9 2.012wx-w1w2- 3.0
2019-07-11 05:00:00 10.5 10.0 10.1--- 9710.0wxwxwx2wx--21010.7 991.9 0.3---wx-w1w2--
2019-07-11 04:00:00 9.9 9.1 9.3--- 9510.0wxwxwx2wx--21010.4 991.6 -0.2---wx-w1--
2019-07-11 03:00:00 9.7 8.5 8.8--- 9218.0wxwxwx2wx--21010.5 991.7 -0.2---------
2019-07-11 02:00:00 9.5 7.9 8.4--- 9021.0wxwxwx2wx--21010.4 991.6 -0.3---------
2019-07-11 01:00:00 9.5 7.4 8.1--- 8730.0wxwxwxwx2wx--21010.6 991.8 -0.1---------
2019-07-11 00:00:00 10.4 8.2 8.9--- 8635.0wxwxwx2wx--21010.7 991.9 0.1- 0.06------
1.1 ms

 

Print Friendly, PDF & Email